Weather at Pakenham Airport [CLOSED]

Public forecast

Using degrees Celsius for public forecast. Weather courtesy of forecast.io.

Closest aviation weather report (METAR) to Pakenham Airport

Closest report is Melbourne International Airport, 39.2 nm (72.6 km) NW.

2024/07/22 10:00 (retrieved 39 minutes ago)

YMML 221000Z AUTO 01012KT 9999 // NCD 13/09 Q1023 RF000/0000

Closest aviation forecast (TAF) to Pakenham Airport

Closest forecast is Melbourne International Airport, 39.2 nm (72.6 km) NW.

2024/07/22 09:51 (retrieved 48 minutes ago)

TAF YMML 220809Z 2209/2312 01012KT 9999 FEW035 FM222300 01015G25KT CAVOK FM230200 01018G32KT CAVOK FM230600 01016G26KT CAVOK